Time;durP1;ratioP1;P1;durP2;ratioP2;P2;SDS_P1;SDS_P2;PMS_P1;PMS_P2;Temp;Humidity;BMP_temperature;BMP_pressure;BME280_temperature;BME280_humidity;BME280_pressure;Samples;Min_cycle;Max_cycle;Signal;HPM_P1;HPM_P2
2020/12/04 00:00:27;;;;;;;8.20;5.50;;;4.90;99.90;;;;;;5074596;28;20473;-90
2020/12/04 00:02:53;;;;;;;8.23;6.07;;;4.80;99.90;;;;;;5060179;28;20456;-90
2020/12/04 00:05:19;;;;;;;7.80;5.70;;;4.90;99.90;;;;;;5053515;28;20456;-89
2020/12/04 00:07:46;;;;;;;8.77;5.67;;;4.90;99.90;;;;;;5054072;28;20461;-89
2020/12/04 00:10:13;;;;;;;8.90;5.63;;;4.90;99.90;;;;;;5054265;28;20460;-90
2020/12/04 00:12:40;;;;;;;7.80;5.40;;;4.90;99.90;;;;;;5055674;28;20457;-90
2020/12/04 00:15:10;;;;;;;7.53;4.90;;;5.00;99.90;;;;;;5051543;28;20453;-89
2020/12/04 00:17:37;;;;;;;7.27;5.57;;;5.00;99.90;;;;;;5052169;28;20490;-88
2020/12/04 00:20:04;;;;;;;7.97;5.23;;;5.10;99.90;;;;;;5039927;28;20814;-89
2020/12/04 00:22:31;;;;;;;8.27;5.50;;;5.10;99.90;;;;;;5042086;28;20451;-89
2020/12/04 00:24:58;;;;;;;8.87;4.93;;;5.20;99.90;;;;;;5055216;28;20505;-90
2020/12/04 00:27:24;;;;;;;8.90;4.70;;;5.20;99.90;;;;;;5072807;28;20526;-91
2020/12/04 00:29:52;;;;;;;7.87;4.57;;;5.10;99.90;;;;;;5066684;28;20453;-90
2020/12/04 00:32:18;;;;;;;8.97;5.80;;;5.10;99.90;;;;;;5054537;28;20990;-86
2020/12/04 00:34:44;;;;;;;7.07;4.70;;;5.10;99.90;;;;;;5076970;28;20497;-92
2020/12/04 00:37:11;;;;;;;7.87;5.40;;;5.10;99.90;;;;;;5078915;28;20552;-90
2020/12/04 00:39:38;;;;;;;9.47;5.30;;;5.10;99.90;;;;;;5060229;28;20467;-93
2020/12/04 00:42:04;;;;;;;7.30;5.13;;;5.00;99.90;;;;;;5059449;28;20491;-90
2020/12/04 00:44:31;;;;;;;9.20;5.57;;;4.90;99.90;;;;;;5071642;28;20458;-89
2020/12/04 00:47:00;;;;;;;6.50;5.57;;;4.90;99.90;;;;;;5070138;28;20467;-90
2020/12/04 00:49:27;;;;;;;8.20;5.70;;;4.80;99.90;;;;;;5054661;28;20550;-91
2020/12/04 00:51:54;;;;;;;7.57;4.80;;;4.80;99.90;;;;;;5057844;28;20453;-89
2020/12/04 00:54:20;;;;;;;8.57;5.50;;;4.80;99.90;;;;;;5047494;28;20452;-91
2020/12/04 00:56:47;;;;;;;6.70;5.00;;;4.80;99.90;;;;;;5045164;28;20544;-91
2020/12/04 00:59:15;;;;;;;6.13;4.73;;;4.80;99.90;;;;;;5054081;28;20598;-89
2020/12/04 01:01:41;;;;;;;5.37;4.53;;;4.80;99.90;;;;;;5062634;28;20465;-89
2020/12/04 01:04:09;;;;;;;6.37;4.70;;;4.70;99.90;;;;;;5078452;28;20436;-87
2020/12/04 01:06:36;;;;;;;8.10;4.60;;;4.80;99.90;;;;;;5057422;28;20456;-90
2020/12/04 01:09:04;;;;;;;8.30;4.33;;;4.80;99.90;;;;;;5057647;28;20435;-90
2020/12/04 01:11:31;;;;;;;7.47;4.90;;;4.80;99.90;;;;;;5057465;28;20464;-90
2020/12/04 01:13:58;;;;;;;9.90;5.53;;;4.70;99.90;;;;;;5057512;28;20496;-90
2020/12/04 01:16:25;;;;;;;7.73;5.33;;;4.80;99.90;;;;;;5031716;28;20460;-89
2020/12/04 01:18:51;;;;;;;7.00;4.30;;;4.80;99.90;;;;;;5057674;28;20491;-88
2020/12/04 01:21:19;;;;;;;10.13;4.93;;;4.80;99.90;;;;;;5045422;28;20471;-89
2020/12/04 01:23:45;;;;;;;7.50;3.93;;;4.80;99.90;;;;;;5037946;28;20465;-88
2020/12/04 01:26:15;;;;;;;6.60;4.87;;;4.80;99.90;;;;;;5050515;28;20423;-89
2020/12/04 01:28:41;;;;;;;7.77;4.50;;;4.80;99.90;;;;;;5057143;28;20494;-89
2020/12/04 01:31:11;;;;;;;6.23;4.90;;;4.80;99.90;;;;;;5076982;28;20457;-88
2020/12/04 01:33:38;;;;;;;8.90;4.60;;;4.70;99.90;;;;;;5069086;28;20484;-86
2020/12/04 01:36:05;;;;;;;6.70;4.30;;;4.70;99.90;;;;;;5057342;28;20448;-89
2020/12/04 01:38:32;;;;;;;8.93;4.60;;;4.80;99.90;;;;;;5056414;28;20453;-88
2020/12/04 01:40:59;;;;;;;5.73;4.63;;;4.80;99.90;;;;;;5056951;28;20460;-88
2020/12/04 01:43:26;;;;;;;6.97;4.80;;;4.80;99.90;;;;;;5056495;28;20444;-88
2020/12/04 01:45:53;;;;;;;6.30;4.50;;;4.80;99.90;;;;;;5055507;28;20917;-88
2020/12/04 01:48:19;;;;;;;7.67;4.80;;;4.80;99.90;;;;;;5059886;28;20515;-86
2020/12/04 01:50:46;;;;;;;6.30;4.70;;;4.80;99.90;;;;;;5056732;28;20452;-85
2020/12/04 01:53:16;;;;;;;4.87;3.97;;;4.80;99.90;;;;;;5060128;28;20443;-86
2020/12/04 01:55:43;;;;;;;7.00;4.33;;;4.90;99.90;;;;;;5068015;28;20455;-87
2020/12/04 01:58:11;;;;;;;5.77;4.13;;;4.90;99.90;;;;;;5067494;28;20548;-86
2020/12/04 02:00:38;;;;;;;7.10;5.00;;;4.90;99.90;;;;;;5075852;28;20470;-86
2020/12/04 02:03:07;;;;;;;5.27;3.67;;;4.80;99.90;;;;;;5075786;28;20421;-84
2020/12/04 02:05:34;;;;;;;7.30;4.30;;;4.90;99.90;;;;;;5075292;28;20843;-85
2020/12/04 02:08:07;;;;;;;5.40;4.10;;;4.90;99.90;;;;;;5070283;28;20458;-86
2020/12/04 02:10:40;;;;;;;8.30;6.03;;;4.90;99.90;;;;;;5055731;28;20494;-86
2020/12/04 02:13:08;;;;;;;5.80;3.90;;;4.90;99.90;;;;;;5072061;28;20453;-85
2020/12/04 02:15:34;;;;;;;7.00;4.57;;;4.90;99.90;;;;;;5053879;28;20453;-86
2020/12/04 02:18:04;;;;;;;5.93;4.47;;;4.80;99.90;;;;;;5049533;28;20528;-85
2020/12/04 02:20:32;;;;;;;7.30;5.40;;;4.80;99.90;;;;;;5055057;28;20519;-85
2020/12/04 02:22:59;;;;;;;9.10;4.90;;;4.80;99.90;;;;;;5055438;28;20460;-85
2020/12/04 02:25:26;;;;;;;6.80;5.17;;;4.80;99.90;;;;;;5054856;28;20506;-85
2020/12/04 02:27:53;;;;;;;7.20;5.00;;;4.80;99.90;;;;;;5055565;28;20435;-84
2020/12/04 02:30:23;;;;;;;5.07;4.00;;;4.80;99.90;;;;;;5054757;28;20774;-85
2020/12/04 02:32:49;;;;;;;6.40;4.30;;;4.80;99.90;;;;;;5055793;28;20831;-85
2020/12/04 02:35:16;;;;;;;7.13;4.63;;;4.90;99.90;;;;;;5055282;28;20468;-86
2020/12/04 02:37:46;;;;;;;6.47;4.47;;;4.90;99.90;;;;;;5035599;28;20543;-85
2020/12/04 02:40:14;;;;;;;6.50;3.50;;;4.90;99.90;;;;;;5066407;28;20462;-86
2020/12/04 02:42:41;;;;;;;5.97;3.07;;;4.90;99.90;;;;;;5076253;28;20458;-85
2020/12/04 02:45:09;;;;;;;5.03;3.70;;;4.90;99.90;;;;;;5081487;28;20501;-86
2020/12/04 02:47:36;;;;;;;6.03;4.30;;;4.90;99.90;;;;;;5074561;28;20449;-86
2020/12/04 02:50:05;;;;;;;5.83;4.00;;;4.90;99.90;;;;;;5067783;28;20456;-86
2020/12/04 02:52:31;;;;;;;4.23;3.47;;;5.00;99.90;;;;;;5054622;28;20427;-87
2020/12/04 02:54:59;;;;;;;5.20;3.50;;;4.90;99.90;;;;;;5074499;28;20509;-85
2020/12/04 02:57:25;;;;;;;5.47;4.07;;;4.90;99.90;;;;;;5064056;28;20491;-85
2020/12/04 02:59:52;;;;;;;5.47;3.97;;;5.00;99.90;;;;;;5054294;28;20448;-85
2020/12/04 03:02:18;;;;;;;4.53;3.10;;;5.00;99.90;;;;;;5053980;28;20483;-87
2020/12/04 03:04:45;;;;;;;4.60;3.50;;;5.00;99.90;;;;;;5054729;28;20453;-87
2020/12/04 03:07:12;;;;;;;4.40;3.43;;;5.00;99.90;;;;;;5054488;28;20515;-85
2020/12/04 03:09:39;;;;;;;5.20;4.00;;;5.00;99.90;;;;;;5053348;28;20451;-86
2020/12/04 03:12:06;;;;;;;5.37;3.57;;;5.00;99.90;;;;;;5054831;28;20512;-86
2020/12/04 03:14:32;;;;;;;4.53;3.23;;;5.00;99.90;;;;;;5052903;28;20514;-86
2020/12/04 03:16:59;;;;;;;3.90;3.03;;;5.00;99.90;;;;;;5044409;28;20488;-86
2020/12/04 03:19:25;;;;;;;5.33;3.47;;;5.10;99.90;;;;;;5057985;28;20472;-85
2020/12/04 03:21:52;;;;;;;8.93;2.80;;;5.20;99.90;;;;;;5050348;28;20583;-84
2020/12/04 03:24:18;;;;;;;5.10;3.70;;;5.30;99.90;;;;;;5054792;28;20827;-87
2020/12/04 03:26:45;;;;;;;6.57;3.93;;;5.40;99.90;;;;;;5055005;28;20429;-88
2020/12/04 03:29:12;;;;;;;3.73;2.67;;;5.40;99.90;;;;;;5054941;28;20964;-89
2020/12/04 03:31:39;;;;;;;7.33;4.00;;;5.40;99.90;;;;;;5053918;28;20982;-88
2020/12/04 03:34:05;;;;;;;4.13;3.10;;;5.50;99.90;;;;;;5055190;28;20449;-89
2020/12/04 03:36:32;;;;;;;5.23;3.47;;;5.50;99.90;;;;;;5055161;28;20988;-88
2020/12/04 03:38:59;;;;;;;4.70;3.40;;;5.50;99.90;;;;;;5065886;28;20457;-90
2020/12/04 03:41:26;;;;;;;4.23;3.20;;;5.50;99.90;;;;;;5054334;28;20478;-87
2020/12/04 03:43:52;;;;;;;4.10;3.03;;;5.50;99.90;;;;;;5074999;28;20835;-90
2020/12/04 03:46:20;;;;;;;3.47;2.73;;;5.50;99.90;;;;;;5072416;28;20447;-90
2020/12/04 03:48:46;;;;;;;3.43;2.63;;;5.60;99.90;;;;;;5056793;28;20450;-88
2020/12/04 03:51:13;;;;;;;4.73;3.33;;;5.60;99.90;;;;;;5055899;28;20972;-90
2020/12/04 03:53:39;;;;;;;4.07;2.40;;;5.70;99.90;;;;;;5069832;28;20501;-89
2020/12/04 03:56:06;;;;;;;3.40;2.50;;;5.70;99.90;;;;;;5075624;28;20804;-90
2020/12/04 03:58:33;;;;;;;3.77;2.23;;;5.80;99.90;;;;;;5056606;28;20487;-91
2020/12/04 04:00:59;;;;;;;5.27;3.30;;;5.80;99.90;;;;;;5069588;28;20486;-90
2020/12/04 04:03:27;;;;;;;4.00;2.97;;;5.80;99.90;;;;;;5074806;28;20480;-91
2020/12/04 04:05:53;;;;;;;3.40;2.43;;;5.80;99.90;;;;;;5075396;28;20497;-90
2020/12/04 04:08:20;;;;;;;3.93;2.73;;;5.90;99.90;;;;;;5074672;28;20521;-90
2020/12/04 04:10:46;;;;;;;3.90;2.77;;;5.90;99.90;;;;;;5069092;28;20471;-91
2020/12/04 04:13:13;;;;;;;2.90;2.10;;;5.90;99.90;;;;;;5058061;28;20452;-90
2020/12/04 04:15:39;;;;;;;3.40;2.17;;;6.00;99.90;;;;;;5067283;28;20457;-90
2020/12/04 04:18:06;;;;;;;3.13;2.10;;;6.00;99.90;;;;;;5046972;28;20516;-92
2020/12/04 04:20:33;;;;;;;3.63;2.00;;;6.10;99.90;;;;;;5040183;28;20450;-91
2020/12/04 04:23:00;;;;;;;5.70;3.17;;;6.20;99.90;;;;;;5055851;28;20452;-90
2020/12/04 04:25:26;;;;;;;4.17;2.63;;;6.20;99.90;;;;;;5059344;28;20973;-90
2020/12/04 04:27:53;;;;;;;4.17;2.60;;;6.20;99.90;;;;;;5061432;28;20474;-90
2020/12/04 04:30:19;;;;;;;3.83;2.70;;;6.20;99.90;;;;;;5061238;28;20454;-89
2020/12/04 04:32:46;;;;;;;3.70;2.97;;;6.20;99.90;;;;;;5059998;28;20459;-91
2020/12/04 04:35:12;;;;;;;5.00;2.60;;;6.20;99.90;;;;;;5058957;28;20451;-91
2020/12/04 04:37:42;;;;;;;3.27;2.50;;;6.20;99.90;;;;;;5058265;28;20494;-90
2020/12/04 04:40:08;;;;;;;6.57;3.50;;;6.10;99.90;;;;;;5058831;28;20510;-90
2020/12/04 04:42:35;;;;;;;6.73;2.47;;;6.10;99.90;;;;;;5069902;28;20898;-90
2020/12/04 04:45:03;;;;;;;4.97;3.00;;;6.00;99.90;;;;;;5079172;28;20441;-88
2020/12/04 04:47:31;;;;;;;4.70;2.90;;;5.90;99.90;;;;;;5079411;28;20502;-88
2020/12/04 04:49:58;;;;;;;5.27;4.13;;;5.80;99.90;;;;;;5083268;28;20470;-89
2020/12/04 04:52:25;;;;;;;4.63;3.50;;;5.70;99.90;;;;;;5088165;28;20449;-88
2020/12/04 04:54:53;;;;;;;5.40;3.80;;;5.60;99.90;;;;;;5078068;28;20540;-89
2020/12/04 04:57:23;;;;;;;5.70;3.80;;;5.60;99.90;;;;;;5061940;28;20482;-90
2020/12/04 04:59:52;;;;;;;5.13;3.60;;;5.50;99.90;;;;;;5057934;28;20904;-87
2020/12/04 05:02:20;;;;;;;6.50;4.33;;;5.50;99.90;;;;;;5076807;28;20444;-89
2020/12/04 05:04:51;;;;;;;5.27;4.23;;;5.40;99.90;;;;;;5077744;28;20759;-89
2020/12/04 05:07:26;;;;;;;5.03;3.83;;;5.40;99.90;;;;;;5077566;28;20442;-87
2020/12/04 05:09:54;;;;;;;4.77;3.93;;;5.40;99.90;;;;;;5078333;28;20469;-89
2020/12/04 05:12:22;;;;;;;5.67;4.07;;;5.40;99.90;;;;;;5061986;28;20485;-88
2020/12/04 05:14:48;;;;;;;7.57;4.00;;;5.40;99.90;;;;;;5060351;28;20445;-90
2020/12/04 05:17:14;;;;;;;4.93;3.30;;;5.40;99.90;;;;;;5055670;28;20548;-87
2020/12/04 05:19:42;;;;;;;6.70;4.00;;;5.40;99.90;;;;;;5059117;28;20492;-89
2020/12/04 05:22:13;;;;;;;5.43;4.17;;;5.40;99.90;;;;;;5064704;28;20861;-85
2020/12/04 05:24:41;;;;;;;4.87;4.10;;;5.40;99.90;;;;;;5077356;28;20479;-87
2020/12/04 05:27:26;;;;;;;4.67;3.27;;;5.50;99.90;;;;;;5054080;28;20463;-89
2020/12/04 05:29:54;;;;;;;5.70;3.70;;;5.50;99.90;;;;;;5061738;28;20459;-88
2020/12/04 05:32:24;;;;;;;4.47;2.93;;;5.60;99.90;;;;;;5063202;28;20460;-90
2020/12/04 05:34:51;;;;;;;5.00;3.30;;;5.60;99.90;;;;;;5060063;28;20441;-88
2020/12/04 05:37:19;;;;;;;4.30;3.57;;;5.70;99.90;;;;;;5060804;28;20481;-90
2020/12/04 05:39:47;;;;;;;5.57;3.63;;;5.70;99.90;;;;;;5061471;28;20509;-88
2020/12/04 05:42:30;;;;;;;7.60;3.60;;;5.70;99.90;;;;;;5060231;28;20474;-90
2020/12/04 05:44:56;;;;;;;3.97;3.03;;;5.70;99.90;;;;;;5040038;28;20901;-89
2020/12/04 05:47:35;;;;;;;4.87;3.20;;;5.80;99.90;;;;;;5069160;28;20920;-90
2020/12/04 05:50:03;;;;;;;5.90;3.73;;;5.80;99.90;;;;;;5080811;28;20804;-90
2020/12/04 05:52:29;;;;;;;5.37;3.43;;;5.80;99.90;;;;;;5069465;28;20498;-89
2020/12/04 05:54:58;;;;;;;3.70;3.13;;;5.90;99.90;;;;;;5059223;28;20454;-89
2020/12/04 05:57:27;;;;;;;3.97;2.77;;;5.90;99.90;;;;;;5069255;28;20581;-90
2020/12/04 05:59:55;;;;;;;5.33;3.00;;;6.00;99.90;;;;;;5059792;28;20482;-90
2020/12/04 06:02:22;;;;;;;3.27;2.57;;;6.00;99.90;;;;;;5056862;28;20453;-90
2020/12/04 06:04:48;;;;;;;4.23;2.43;;;6.00;99.90;;;;;;5060261;28;20445;-91
2020/12/04 06:07:27;;;;;;;4.37;2.83;;;6.10;99.90;;;;;;5057937;28;20454;-90
2020/12/04 06:09:56;;;;;;;5.30;2.37;;;6.10;99.90;;;;;;5058283;28;20482;-91
2020/12/04 06:12:27;;;;;;;4.07;2.30;;;6.10;99.90;;;;;;5057771;28;20901;-90
2020/12/04 06:15:15;;;;;;;5.10;2.77;;;6.00;99.90;;;;;;5059076;28;20441;-90
2020/12/04 06:17:45;;;;;;;3.83;2.47;;;6.10;99.90;;;;;;5066504;28;20656;-91
2020/12/04 06:20:18;;;;;;;5.63;2.80;;;6.10;99.90;;;;;;5058626;28;20475;-91
2020/12/04 06:23:10;;;;;;;4.07;2.47;;;6.10;99.90;;;;;;5061923;28;20458;-89
2020/12/04 06:25:56;;;;;;;4.40;2.73;;;6.20;99.90;;;;;;5058379;28;20455;-89
2020/12/04 06:28:25;;;;;;;3.73;2.27;;;6.20;99.90;;;;;;5054506;28;20512;-91
2020/12/04 06:31:00;;;;;;;4.53;2.83;;;6.30;99.90;;;;;;5056394;28;20913;-88
2020/12/04 06:33:45;;;;;;;4.30;2.33;;;6.30;99.90;;;;;;5061700;28;20429;-90
2020/12/04 06:36:33;;;;;;;3.43;2.57;;;6.30;99.90;;;;;;5060458;28;20464;-91
2020/12/04 06:39:00;;;;;;;3.53;2.30;;;6.30;99.90;;;;;;5065861;28;20496;-90
2020/12/04 06:41:33;;;;;;;3.80;2.80;;;6.30;99.90;;;;;;5056089;28;20468;-90
2020/12/04 06:44:02;;;;;;;3.73;2.53;;;6.30;99.90;;;;;;5057747;28;21019;-90
2020/12/04 06:46:41;;;;;;;5.93;2.73;;;6.20;99.90;;;;;;5054451;28;20889;-89
2020/12/04 06:49:38;;;;;;;3.73;2.73;;;6.40;99.90;;;;;;5058471;28;20455;-89
2020/12/04 06:52:24;;;;;;;3.93;2.60;;;6.30;99.90;;;;;;5043134;28;20553;-89
2020/12/04 06:54:52;;;;;;;3.47;2.20;;;6.30;99.90;;;;;;5047218;28;20457;-87
2020/12/04 06:57:20;;;;;;;3.07;2.10;;;6.30;99.90;;;;;;5056780;28;20487;-88
2020/12/04 06:59:47;;;;;;;3.50;2.37;;;6.30;99.90;;;;;;5055602;28;20450;-89
2020/12/04 07:02:16;;;;;;;2.93;1.97;;;6.30;99.90;;;;;;5057640;28;20443;-88
2020/12/04 07:04:46;;;;;;;3.40;2.43;;;6.40;99.90;;;;;;5058756;28;20465;-89
2020/12/04 07:07:14;;;;;;;4.83;2.30;;;6.40;99.90;;;;;;5069572;28;20433;-88
2020/12/04 07:09:42;;;;;;;3.43;2.30;;;6.40;99.90;;;;;;5063303;28;20461;-88
2020/12/04 07:12:14;;;;;;;4.70;2.23;;;6.40;99.90;;;;;;5058623;28;20462;-88
2020/12/04 07:14:43;;;;;;;4.13;2.10;;;6.40;99.90;;;;;;5057021;28;20453;-89
2020/12/04 07:17:09;;;;;;;3.00;1.80;;;6.40;99.90;;;;;;5063289;28;20493;-88
2020/12/04 07:19:37;;;;;;;4.60;1.80;;;6.40;99.90;;;;;;5077473;28;20490;-88
2020/12/04 07:22:03;;;;;;;3.83;1.60;;;6.40;99.90;;;;;;5078776;28;20931;-88
2020/12/04 07:24:30;;;;;;;4.90;2.70;;;6.50;99.90;;;;;;5059256;28;20455;-88
2020/12/04 07:26:59;;;;;;;3.20;1.97;;;6.50;99.90;;;;;;5061983;28;20447;-87
2020/12/04 07:29:26;;;;;;;3.23;2.13;;;6.50;99.90;;;;;;5065039;28;20983;-90
2020/12/04 07:31:54;;;;;;;3.20;1.93;;;6.50;99.90;;;;;;5081782;28;20551;-87
2020/12/04 07:34:28;;;;;;;3.57;1.93;;;6.50;99.90;;;;;;5067046;28;20451;-87
2020/12/04 07:36:57;;;;;;;3.57;2.23;;;6.50;99.90;;;;;;5063040;28;20544;-86
2020/12/04 07:39:29;;;;;;;3.03;1.97;;;6.50;99.90;;;;;;5062195;28;20464;-86
2020/12/04 07:41:58;;;;;;;5.80;2.37;;;6.50;99.90;;;;;;5075586;28;20449;-87
2020/12/04 07:44:35;;;;;;;2.77;1.83;;;6.50;99.90;;;;;;5070031;28;20451;-86
2020/12/04 07:47:08;;;;;;;2.93;2.07;;;6.60;99.90;;;;;;5065155;28;20959;-87
2020/12/04 07:49:36;;;;;;;3.63;2.00;;;6.60;99.90;;;;;;5091946;28;20476;-95
2020/12/04 07:52:21;;;;;;;3.07;1.97;;;6.70;99.90;;;;;;5095398;28;20493;-89
2020/12/04 07:54:49;;;;;;;3.50;1.90;;;6.70;99.90;;;;;;5092556;28;20421;-88
2020/12/04 07:57:24;;;;;;;3.27;1.63;;;6.70;99.90;;;;;;5084972;28;20489;-88
2020/12/04 07:59:53;;;;;;;4.10;2.13;;;6.80;99.90;;;;;;5077387;28;20482;-89
2020/12/04 08:02:23;;;;;;;4.97;1.80;;;6.80;99.90;;;;;;5070642;28;20456;-89
2020/12/04 08:04:50;;;;;;;2.63;1.47;;;6.80;99.90;;;;;;5074774;28;20432;-89
2020/12/04 08:07:16;;;;;;;2.90;1.57;;;6.80;99.90;;;;;;5069588;28;20484;-90
2020/12/04 08:09:45;;;;;;;4.47;1.57;;;6.90;99.90;;;;;;5076260;28;20469;-89
2020/12/04 08:12:15;;;;;;;3.00;1.73;;;6.90;99.90;;;;;;5076050;28;20435;-89
2020/12/04 08:14:49;;;;;;;3.43;1.90;;;6.90;99.90;;;;;;5066488;28;20480;-89
2020/12/04 08:17:18;;;;;;;2.93;2.10;;;6.90;99.90;;;;;;5042994;28;20956;-88
2020/12/04 08:19:45;;;;;;;2.97;1.70;;;7.00;99.90;;;;;;5050438;28;20545;-89
2020/12/04 08:22:11;;;;;;;2.40;1.60;;;7.00;99.90;;;;;;5060745;28;20521;-89
2020/12/04 08:24:39;;;;;;;2.67;1.37;;;7.00;99.90;;;;;;5078733;28;20458;-89
2020/12/04 08:27:09;;;;;;;3.40;1.60;;;7.10;99.90;;;;;;5059885;28;20919;-89
2020/12/04 08:29:38;;;;;;;5.60;1.43;;;7.10;99.90;;;;;;5059676;28;20455;-89
2020/12/04 08:32:07;;;;;;;4.07;1.50;;;7.10;99.90;;;;;;5058754;28;20447;-89
2020/12/04 08:34:34;;;;;;;4.00;1.80;;;7.20;99.90;;;;;;5076273;28;20976;-89
2020/12/04 08:37:02;;;;;;;3.63;1.70;;;7.20;99.90;;;;;;5078537;28;20456;-89
2020/12/04 08:39:36;;;;;;;5.70;1.83;;;7.20;99.90;;;;;;5060532;28;20447;-92
2020/12/04 08:42:29;;;;;;;2.93;1.47;;;7.30;99.90;;;;;;5059992;28;20455;-89
2020/12/04 08:45:09;;;;;;;2.60;1.20;;;7.40;99.90;;;;;;5061673;28;20488;-89
2020/12/04 08:47:39;;;;;;;2.07;1.33;;;7.40;99.90;;;;;;5056605;28;20471;-89
2020/12/04 08:50:11;;;;;;;2.20;1.40;;;7.40;99.90;;;;;;5058683;28;20919;-88
2020/12/04 08:52:41;;;;;;;3.70;1.37;;;7.50;99.90;;;;;;5057817;28;20475;-89
2020/12/04 08:55:15;;;;;;;3.70;1.60;;;7.50;99.90;;;;;;5043453;28;20444;-88
2020/12/04 08:57:44;;;;;;;2.50;1.10;;;7.60;99.90;;;;;;5043498;28;20543;-89
2020/12/04 09:00:13;;;;;;;2.03;1.00;;;7.70;99.90;;;;;;5045062;28;20448;-88
2020/12/04 09:02:40;;;;;;;2.20;1.20;;;7.80;99.90;;;;;;5079967;28;20460;-89
2020/12/04 09:05:09;;;;;;;2.10;1.27;;;7.80;99.90;;;;;;5073335;28;20459;-89
2020/12/04 09:07:36;;;;;;;2.70;1.30;;;8.00;99.90;;;;;;5064589;28;20448;-88
2020/12/04 09:10:04;;;;;;;2.00;1.10;;;8.00;99.90;;;;;;5066224;28;20978;-89
2020/12/04 09:12:31;;;;;;;2.77;1.10;;;8.00;99.90;;;;;;5077750;28;20482;-90
2020/12/04 09:14:58;;;;;;;4.10;1.63;;;8.00;99.90;;;;;;5060504;28;20462;-88
2020/12/04 09:17:25;;;;;;;3.80;1.50;;;8.00;99.90;;;;;;5056167;28;20483;-90
2020/12/04 09:19:52;;;;;;;2.33;1.20;;;8.10;99.90;;;;;;5056786;28;20613;-88
2020/12/04 09:22:18;;;;;;;2.20;1.03;;;8.10;99.90;;;;;;5077607;28;20991;-89
2020/12/04 09:24:48;;;;;;;2.43;1.40;;;8.20;99.90;;;;;;5076205;28;20455;-89
2020/12/04 09:27:15;;;;;;;2.93;1.47;;;8.30;99.90;;;;;;5086656;28;20450;-89
2020/12/04 09:29:42;;;;;;;2.80;1.17;;;8.30;99.90;;;;;;5088910;28;20444;-88
2020/12/04 09:32:12;;;;;;;2.80;1.77;;;8.40;99.90;;;;;;5089389;28;20436;-89
2020/12/04 09:34:41;;;;;;;2.80;1.10;;;8.40;99.90;;;;;;5065377;28;20462;-89
2020/12/04 09:37:20;;;;;;;2.37;1.37;;;8.40;99.90;;;;;;5084943;28;20542;-89
2020/12/04 09:39:47;;;;;;;3.00;1.50;;;8.40;99.90;;;;;;5076711;28;20935;-88
2020/12/04 09:42:15;;;;;;;2.80;1.63;;;8.30;99.90;;;;;;5066175;28;20461;-90
2020/12/04 09:44:43;;;;;;;2.27;1.20;;;8.30;99.90;;;;;;5086122;28;20492;-88
2020/12/04 09:47:10;;;;;;;3.13;1.20;;;8.40;99.90;;;;;;5075281;28;20470;-89
2020/12/04 09:49:38;;;;;;;2.87;1.50;;;8.40;99.90;;;;;;5073616;28;20436;-91
2020/12/04 09:52:05;;;;;;;3.53;1.70;;;8.40;99.90;;;;;;5075408;28;20448;-88
2020/12/04 09:54:35;;;;;;;2.93;1.80;;;8.40;99.90;;;;;;5075062;28;20451;-90
2020/12/04 09:57:03;;;;;;;3.60;1.37;;;8.40;99.90;;;;;;5067500;28;20492;-88
2020/12/04 09:59:29;;;;;;;3.90;1.33;;;8.30;99.90;;;;;;5063741;28;20448;-88
2020/12/04 10:01:56;;;;;;;3.03;1.70;;;8.40;99.90;;;;;;5062983;28;20505;-89
2020/12/04 10:04:24;;;;;;;3.73;1.90;;;8.30;99.90;;;;;;5058461;28;20452;-90
2020/12/04 10:06:52;;;;;;;3.97;1.80;;;8.30;99.90;;;;;;5041012;28;20468;-89
2020/12/04 10:09:19;;;;;;;3.00;1.20;;;8.30;99.90;;;;;;5078725;28;20458;-89
2020/12/04 10:11:46;;;;;;;2.17;1.17;;;8.30;99.90;;;;;;5062058;28;20452;-89
2020/12/04 10:14:14;;;;;;;2.57;1.30;;;8.30;99.90;;;;;;5060905;28;20447;-89
2020/12/04 10:16:41;;;;;;;2.97;1.50;;;8.40;99.90;;;;;;5061348;28;20467;-89
2020/12/04 10:19:08;;;;;;;8.50;1.67;;;8.50;99.90;;;;;;5067423;28;20818;-90
2020/12/04 10:21:37;;;;;;;2.80;1.53;;;8.50;99.90;;;;;;5070762;28;20448;-90
2020/12/04 10:26:52;;;;;;;2.60;1.50;;;8.40;99.90;;;;;;5111610;27;853806;-83
2020/12/04 10:29:20;;;;;;;2.80;1.30;;;8.30;99.90;;;;;;5126988;28;20195;-84
2020/12/04 10:31:48;;;;;;;2.10;1.20;;;8.40;99.90;;;;;;5141055;28;20445;-84
2020/12/04 10:34:15;;;;;;;2.67;1.40;;;8.50;99.90;;;;;;5148321;28;20449;-86
2020/12/04 10:36:42;;;;;;;2.40;1.50;;;8.60;99.90;;;;;;5143439;28;20453;-85
2020/12/04 10:39:10;;;;;;;3.07;1.30;;;8.70;99.90;;;;;;5142434;28;20444;-85
2020/12/04 10:41:38;;;;;;;2.77;1.30;;;8.80;99.90;;;;;;5146840;28;20463;-87
2020/12/04 10:44:07;;;;;;;2.67;1.53;;;8.90;99.90;;;;;;5135770;28;20467;-84
2020/12/04 10:46:39;;;;;;;2.40;1.20;;;8.90;99.90;;;;;;5140662;28;20480;-92
2020/12/04 10:49:07;;;;;;;3.00;1.40;;;8.90;99.90;;;;;;5120083;28;20477;-84
2020/12/04 10:51:36;;;;;;;2.43;1.20;;;9.20;99.90;;;;;;5139628;28;20468;-84
2020/12/04 10:54:03;;;;;;;2.43;1.20;;;9.50;99.90;;;;;;5138718;28;20474;-83
2020/12/04 10:56:29;;;;;;;4.13;1.40;;;9.40;99.90;;;;;;5140462;28;20970;-85
2020/12/04 10:58:56;;;;;;;2.47;1.40;;;9.20;99.90;;;;;;5135020;28;20513;-85
2020/12/04 11:01:28;;;;;;;3.47;1.20;;;9.10;99.90;;;;;;5146304;28;20444;-84
2020/12/04 11:06:41;;;;;;;2.33;1.07;;;8.90;99.90;;;;;;5136590;28;20974;-85
2020/12/04 11:09:07;;;;;;;2.93;1.13;;;9.00;99.90;;;;;;5128005;28;20440;-84
2020/12/04 11:11:35;;;;;;;2.10;0.90;;;9.20;99.90;;;;;;5126980;28;20449;-85
2020/12/04 11:14:01;;;;;;;3.30;1.17;;;9.60;99.90;;;;;;5136050;28;20449;-87
2020/12/04 11:16:29;;;;;;;2.13;0.90;;;10.00;99.90;;;;;;5134123;28;20454;-85
2020/12/04 11:18:56;;;;;;;3.13;1.10;;;10.20;99.90;;;;;;5127277;28;20452;-85
2020/12/04 11:21:28;;;;;;;5.03;1.13;;;10.20;99.90;;;;;;5128232;28;20950;-85
2020/12/04 11:23:54;;;;;;;2.00;1.00;;;10.40;99.90;;;;;;5123380;28;20444;-84
2020/12/04 11:26:21;;;;;;;2.60;0.97;;;10.70;99.90;;;;;;5132809;28;20962;-85
2020/12/04 11:28:47;;;;;;;2.50;1.17;;;11.60;99.90;;;;;;5132877;28;20444;-85
2020/12/04 11:31:14;;;;;;;2.53;1.00;;;11.90;99.90;;;;;;5131584;28;20463;-85
2020/12/04 11:33:41;;;;;;;3.30;1.00;;;11.90;99.90;;;;;;5127512;28;20449;-85
2020/12/04 11:36:08;;;;;;;2.27;1.00;;;12.00;99.90;;;;;;5123230;28;20927;-85
2020/12/04 11:38:36;;;;;;;3.90;1.57;;;12.60;99.90;;;;;;5114253;28;20437;-85
2020/12/04 11:41:03;;;;;;;3.47;1.10;;;12.60;99.90;;;;;;5119427;28;20834;-85
2020/12/04 11:43:30;;;;;;;1.80;0.80;;;12.00;99.90;;;;;;5117200;28;20454;-86
2020/12/04 11:45:57;;;;;;;3.90;0.97;;;11.30;99.90;;;;;;5107366;28;20485;-89
2020/12/04 11:48:23;;;;;;;4.80;1.30;;;10.80;99.90;;;;;;5116999;28;20454;-88
2020/12/04 11:50:51;;;;;;;2.00;1.10;;;11.10;99.90;;;;;;5119456;28;20441;-88
2020/12/04 11:53:17;;;;;;;3.40;1.10;;;11.70;99.90;;;;;;5106194;28;20453;-88
2020/12/04 11:55:46;;;;;;;2.63;1.00;;;12.30;99.90;;;;;;5115285;28;20548;-88
2020/12/04 11:58:12;;;;;;;3.00;1.10;;;12.40;99.90;;;;;;5108669;28;20469;-88
2020/12/04 12:00:39;;;;;;;2.77;1.30;;;12.00;99.90;;;;;;5115022;28;20464;-88
2020/12/04 12:03:05;;;;;;;1.87;0.87;;;11.70;99.90;;;;;;5117846;28;20457;-89
2020/12/04 12:05:36;;;;;;;2.43;1.03;;;11.50;99.90;;;;;;5117898;28;20568;-84
2020/12/04 12:08:04;;;;;;;2.20;0.90;;;11.10;99.90;;;;;;5117088;28;20450;-85
2020/12/04 12:10:30;;;;;;;1.90;0.80;;;10.80;99.90;;;;;;5118877;28;20442;-85
2020/12/04 12:13:02;;;;;;;2.30;1.10;;;10.50;99.90;;;;;;5121503;28;20514;-84
2020/12/04 12:15:32;;;;;;;2.43;1.23;;;10.60;99.90;;;;;;5113955;28;20521;-85
2020/12/04 12:17:58;;;;;;;2.07;0.93;;;10.40;99.90;;;;;;5123280;28;20905;-86
2020/12/04 12:20:25;;;;;;;2.10;0.90;;;10.30;99.90;;;;;;5123347;28;20438;-85
2020/12/04 12:22:55;;;;;;;2.30;1.30;;;10.20;99.90;;;;;;5116300;28;21520;-86
2020/12/04 12:25:23;;;;;;;3.80;1.40;;;10.00;99.90;;;;;;5119722;28;20865;-85
2020/12/04 12:27:49;;;;;;;2.00;1.00;;;9.90;99.90;;;;;;5123702;28;20471;-90
2020/12/04 12:30:16;;;;;;;2.57;0.80;;;9.80;99.90;;;;;;5129995;28;20464;-85
2020/12/04 12:32:43;;;;;;;3.13;1.13;;;9.80;99.90;;;;;;5124875;28;20453;-89
2020/12/04 12:35:12;;;;;;;2.30;0.90;;;9.80;99.90;;;;;;5127296;28;20438;-86
2020/12/04 12:37:42;;;;;;;2.60;1.20;;;9.80;99.90;;;;;;5135624;28;20469;-88
2020/12/04 12:40:10;;;;;;;4.50;1.07;;;9.80;99.90;;;;;;5130214;28;20483;-85
2020/12/04 12:42:38;;;;;;;2.10;1.10;;;9.80;99.90;;;;;;5125879;28;20500;-86
2020/12/04 12:45:05;;;;;;;4.67;1.17;;;9.80;99.90;;;;;;5122820;28;20508;-85
2020/12/04 12:47:36;;;;;;;2.10;1.30;;;9.70;99.90;;;;;;5113635;28;20435;-83
2020/12/04 12:50:03;;;;;;;3.07;1.17;;;9.70;99.90;;;;;;5122899;28;20453;-86
2020/12/04 12:52:30;;;;;;;2.00;1.10;;;9.60;99.90;;;;;;5126929;28;20495;-85
2020/12/04 12:54:56;;;;;;;2.90;1.00;;;9.70;99.90;;;;;;5124355;28;20456;-86
2020/12/04 12:57:23;;;;;;;2.67;1.40;;;9.50;99.90;;;;;;5112133;28;20477;-86
2020/12/04 12:59:50;;;;;;;4.10;1.50;;;9.40;99.90;;;;;;5108243;28;20445;-87
2020/12/04 13:02:17;;;;;;;2.70;1.50;;;9.40;99.90;;;;;;5123848;28;20454;-86
2020/12/04 13:04:46;;;;;;;2.93;1.00;;;9.30;99.90;;;;;;5128240;28;20441;-85
2020/12/04 13:07:13;;;;;;;2.17;1.10;;;9.30;99.90;;;;;;5118600;28;20453;-87